GIL1029 SBSG-SBPA
Flight info
| Callsign | GIL1029 |
|---|---|
| Flight time | N/A |
| Altitude | 36000 |
| Route | SIKEL UZ21 VUNOX UZ38 VUKMO |
| Aircraft | A319/M-SDE3FGHIRWY/LB1 |
Departure
| Time | N/A |
|---|---|
| Airport | Rio Grande do Norte/São Gonçalo do Amarante–Governador Aluízio Alves International Airport (SBSG) |
Arrival
| Time | 2026-05-03 20:23 |
|---|---|
| Airport | Porto Alegre-Salgado Filho International Airport (SBPA) |
| Time | Latitude | Longitude | Altitude | Speed | Heading |
|---|---|---|---|---|---|
| 2026-05-03 20:15 | -29.81428 | -51.39746 | 5524 ft | 205 kts | 188° |
| 2026-05-03 20:15 | -29.82795 | -51.39990 | 5408 ft | 192 kts | 187° |
| 2026-05-03 20:15 | -29.84079 | -51.40219 | 5025 ft | 186 kts | 187° |
| 2026-05-03 20:15 | -29.85358 | -51.40445 | 4482 ft | 190 kts | 187° |
| 2026-05-03 20:16 | -29.86677 | -51.40677 | 4239 ft | 195 kts | 187° |
| 2026-05-03 20:16 | -29.88032 | -51.40917 | 4206 ft | 194 kts | 187° |
| 2026-05-03 20:16 | -29.89356 | -51.41087 | 4198 ft | 194 kts | 176° |
| 2026-05-03 20:16 | -29.90630 | -51.40788 | 4147 ft | 180 kts | 158° |
| 2026-05-03 20:17 | -29.91767 | -51.40323 | 4002 ft | 168 kts | 159° |
| 2026-05-03 20:17 | -29.92870 | -51.39890 | 3673 ft | 167 kts | 159° |
| 2026-05-03 20:17 | -29.93976 | -51.39464 | 3311 ft | 167 kts | 158° |
| 2026-05-03 20:17 | -29.95070 | -51.39041 | 3142 ft | 167 kts | 158° |
| 2026-05-03 20:18 | -29.96168 | -51.38613 | 2966 ft | 166 kts | 158° |
| 2026-05-03 20:18 | -29.97249 | -51.38192 | 2898 ft | 163 kts | 158° |
| 2026-05-03 20:18 | -29.98271 | -51.37661 | 2896 ft | 162 kts | 138° |
| 2026-05-03 20:18 | -29.98900 | -51.36630 | 2904 ft | 156 kts | 107° |
| 2026-05-03 20:19 | -29.99104 | -51.35421 | 2851 ft | 155 kts | 92° |
| 2026-05-03 20:19 | -29.99133 | -51.34178 | 2720 ft | 153 kts | 88° |
| 2026-05-03 20:19 | -29.99147 | -51.32971 | 2516 ft | 149 kts | 90° |
| 2026-05-03 20:19 | -29.99170 | -51.31782 | 2317 ft | 148 kts | 90° |
| 2026-05-03 20:20 | -29.99193 | -51.30597 | 2115 ft | 147 kts | 90° |
| 2026-05-03 20:20 | -29.99217 | -51.29414 | 1917 ft | 148 kts | 91° |
| 2026-05-03 20:20 | -29.99241 | -51.28228 | 1714 ft | 148 kts | 91° |
| 2026-05-03 20:20 | -29.99263 | -51.27045 | 1509 ft | 146 kts | 91° |
| 2026-05-03 20:21 | -29.99287 | -51.25884 | 1314 ft | 147 kts | 91° |
| 2026-05-03 20:21 | -29.99302 | -51.25098 | 1180 ft | 147 kts | 92° |
| 2026-05-03 20:21 | -29.99326 | -51.23931 | 984 ft | 146 kts | 91° |
| 2026-05-03 20:21 | -29.99350 | -51.22756 | 786 ft | 147 kts | 91° |
| 2026-05-03 20:22 | -29.99373 | -51.21585 | 602 ft | 144 kts | 90° |
| 2026-05-03 20:22 | -29.99397 | -51.20426 | 409 ft | 145 kts | 90° |
| 2026-05-03 20:22 | -29.99419 | -51.19256 | 221 ft | 144 kts | 91° |
| 2026-05-03 20:22 | -29.99442 | -51.18100 | 41 ft | 143 kts | 91° |
| 2026-05-03 20:23 | -29.99458 | -51.17081 | 17 ft | 95 kts | 90° |
| 2026-05-03 20:23 | -29.99456 | -51.16806 | 18 ft | 3 kts | 87° |
| 2026-05-03 20:23 | -29.99442 | -51.16753 | 20 ft | 15 kts | 52° |
| 2026-05-03 20:23 | -29.99390 | -51.16736 | 19 ft | 0 kts | 346° |
| 2026-05-03 20:24 | -29.99321 | -51.16741 | 19 ft | 16 kts | 358° |
| 2026-05-03 20:24 | -29.99281 | -51.16828 | 19 ft | 15 kts | 277° |
| 2026-05-03 20:24 | -29.99277 | -51.16970 | 19 ft | 20 kts | 271° |
| 2026-05-03 20:25 | -29.99271 | -51.17154 | 19 ft | 25 kts | 271° |
| 2026-05-03 20:25 | -29.99267 | -51.17354 | 19 ft | 24 kts | 280° |
| 2026-05-03 20:25 | -29.99200 | -51.17407 | 19 ft | 12 kts | 313° |
| 2026-05-03 20:25 | -29.99159 | -51.17437 | 19 ft | 6 kts | 359° |
| 2026-05-03 20:26 | -29.99139 | -51.17437 | 21 ft | 1 kts | 1° |
| 2026-05-03 20:26 | -29.99135 | -51.17437 | 20 ft | 0 kts | 1° |